MMUNMKJP

Guest
Details From MMUN - Cancun Intl
To MKJP - Norman Manley Intl
Flight Number -
Tags Generated
Created
Modified
Stats Distance 601 nm / 1,113 km
Max Altitude 0 ft / 0 m
Waypoints 4
Social Downloads 2
Likes 0
Share VATSIM

Download

Looking for another format? Having issues loading an existing format? Contact us
Advertisement - Login to hide

Notes

Generated

Route

MMUN MAMBI MLY04 MKJP

ID Type Via Altitude Latitude Longitude Leg Dist Tot Dist Heading (true) Name
O MMUN APT - 0 ft / 0 m 21.05496˚ -86.88084˚ - 0 nm - -
MAMBI FIX - 0 ft / 0 m 19.45000˚ -82.04667˚ 288 nm 288 nm 109° / 110° -
MLY04 FIX - 0 ft / 0 m 17.95533˚ -76.84251˚ 309 nm 598 nm 106° / 108° -
O MKJP APT - 0 ft / 0 m 17.94026˚ -76.79945˚ 2 nm 600 nm 110° / 110° -

Altitude Profile

Advertisement - Login to hide

Weather


0- 5 10 15 20 25 30 35+ Temperature / ° C

Clouds and Precipitation
Forecast for 2018-05-21 18:00 UTC. Updated 6 hours ago

Ground ~20,000 ft ~40,000 ft Winds

MMUN

Details ICAO MMUN (CUN)
Name Cancun International
Region Mexico
Timezone America/Cancun (UTC-5.0)
Stats Elevation 24 ft / 7 m (AMSL)
Location 21.042287° -86.873333°
Runways 2
Magnetic Variation 1.937° W

METAR

MMUN 212147Z 13009KT 7SM FEW015TCU BKN080 BKN250 28/23 A2987 RMK 8/278

Decode

TAF

TAF MMUN 211710Z 2118/2224 06010KT 6SM VC RA SCT015CB BKN080 TX29/2118Z TN25/2212Z TEMPO 2120/2124 3SM RA BKN010CB FM220100 12010KT P6SM SCT015 BKN070 FM221500 06010KT 5SM RA BKN010CB TEMPO 2216/2220 2SM RA OVC010CB

Decode

Departure Runways

ID Width Length Bearing (true) Bearing (mag) Surface Threshold Offset Overrun Length
12L 148 ft / 45 m 9,150 ft / 2,789 m 123.62° 125.56° Asphalt 0 ft / 0 m 200 ft / 61 m
12R 190 ft / 58 m 11,459 ft / 3,493 m 123.84° 125.78° Asphalt 0 ft / 0 m 200 ft / 61 m
30L 190 ft / 58 m 11,459 ft / 3,493 m 303.85° 305.79° Asphalt 0 ft / 0 m 200 ft / 61 m
30R 148 ft / 45 m 9,150 ft / 2,789 m 303.63° 305.57° Asphalt 0 ft / 0 m 200 ft / 61 m

MKJP

Details ICAO MKJP (KIN)
Name Norman Manley Intl
Region Jamaica
Timezone Unknown (UTC+0.0)
Stats Elevation 10 ft / 3 m (AMSL)
Location 17.935665° -76.787560°
Runways 1
Magnetic Variation 7.590° W

METAR

MKJP 212300Z 12013KT 9999 SCT020 FEW022CB 28/27 Q1012

Decode

TAF

TAF MKJP 211715Z 2118/2218 14025KT 9999 FEW022CB PROB30 TEMPO 2118/2122 8000 SHRA SCT020 BECMG 2203/2205 13008KT FEW022 BECMG 2212/2214 14020KT FEW020CB

Decode

Destination Runways

ID Width Length Bearing (true) Bearing (mag) Surface Threshold Offset Overrun Length
12 150 ft / 46 m 8,912 ft / 2,717 m 112.09° 119.68° Asphalt 0 ft / 0 m 0 ft / 0 m
30 150 ft / 46 m 8,912 ft / 2,717 m 292.10° 299.69° Asphalt 0 ft / 0 m 0 ft / 0 m

Approach Navaids

Runway Type Ident Frequency Range Bearing (true) Bearing (mag) Slope Elevation
12 Localiser IMLY 109.10 MHz 18 nm / 33 km 115.09° 122.68° - 10 ft / 3 m (AMSL)
12 Glidescope IMLY 109.10 MHz 10 nm / 19 km 115.09° 122.68° 3.00° 8 ft / 2 m (AMSL)

Popular Alternatives